Time;durP1;ratioP1;P1;durP2;ratioP2;P2;SDS_P1;SDS_P2;PMS_P1;PMS_P2;Temp;Humidity;BMP_temperature;BMP_pressure;BME280_temperature;BME280_humidity;BME280_pressure;Samples;Min_cycle;Max_cycle;Signal;HPM_P1;HPM_P2
2024/03/17 00:00:21;;;;;;;9.70;3.65;;;3.50;99.90;;;;;;7370675;19;20033;-71
2024/03/17 00:02:48;;;;;;;9.02;3.17;;;3.40;99.90;;;;;;7367481;19;20033;-71
2024/03/17 00:05:15;;;;;;;10.68;3.88;;;3.40;99.90;;;;;;7365893;19;20018;-71
2024/03/17 00:07:41;;;;;;;9.45;4.25;;;3.40;99.90;;;;;;7373528;19;20556;-71
2024/03/17 00:10:08;;;;;;;11.27;4.07;;;3.40;99.90;;;;;;7371454;19;20018;-67
2024/03/17 00:12:34;;;;;;;10.50;4.25;;;3.40;99.90;;;;;;7384932;19;20102;-66
2024/03/17 00:15:01;;;;;;;10.68;3.78;;;3.40;99.90;;;;;;7382999;19;20689;-67
2024/03/17 00:17:27;;;;;;;11.45;3.38;;;3.30;99.90;;;;;;7381617;19;20502;-67
2024/03/17 00:19:53;;;;;;;11.73;4.00;;;3.30;99.90;;;;;;7379346;19;20113;-70
2024/03/17 00:22:20;;;;;;;6.72;3.40;;;3.30;99.90;;;;;;7374418;19;20010;-71
2024/03/17 00:24:46;;;;;;;7.43;3.90;;;3.30;99.90;;;;;;7379867;19;20844;-67
2024/03/17 00:27:13;;;;;;;4.60;3.17;;;3.20;99.90;;;;;;7380917;19;20019;-71
2024/03/17 00:29:40;;;;;;;8.77;3.95;;;3.20;99.90;;;;;;7381588;19;20022;-66
2024/03/17 00:32:07;;;;;;;10.57;4.38;;;3.20;99.90;;;;;;7384147;19;20018;-71
2024/03/17 00:34:33;;;;;;;10.45;3.67;;;3.10;99.90;;;;;;7372827;19;20874;-68
2024/03/17 00:36:59;;;;;;;6.93;3.78;;;3.10;99.90;;;;;;7383599;19;20043;-70
2024/03/17 00:39:25;;;;;;;11.68;3.90;;;3.10;99.90;;;;;;7373354;19;20018;-67
2024/03/17 00:41:52;;;;;;;13.07;4.68;;;3.00;99.90;;;;;;7383311;19;20054;-67
2024/03/17 00:44:18;;;;;;;10.82;4.28;;;3.10;99.90;;;;;;7372336;19;20023;-70
2024/03/17 00:46:44;;;;;;;12.50;5.30;;;3.10;99.90;;;;;;7373640;19;20018;-71
2024/03/17 00:49:10;;;;;;;9.43;4.68;;;3.00;99.90;;;;;;7370856;19;20022;-70
2024/03/17 00:51:37;;;;;;;15.32;5.07;;;3.10;99.90;;;;;;7381143;19;20022;-67
2024/03/17 00:54:03;;;;;;;11.70;4.50;;;3.00;99.90;;;;;;7381445;19;20025;-67
2024/03/17 00:56:29;;;;;;;11.45;5.20;;;3.10;99.90;;;;;;7380456;19;20036;-71
2024/03/17 00:58:55;;;;;;;9.90;4.47;;;3.00;99.90;;;;;;7381249;19;20032;-67
2024/03/17 01:01:22;;;;;;;13.35;4.03;;;3.00;99.90;;;;;;7383574;19;20029;-67
2024/03/17 01:03:48;;;;;;;11.05;4.28;;;3.00;99.90;;;;;;7378338;19;20021;-66
2024/03/17 01:06:14;;;;;;;9.43;4.05;;;3.00;99.90;;;;;;7378768;19;20034;-70
2024/03/17 01:08:40;;;;;;;11.05;4.95;;;3.00;99.90;;;;;;7375802;19;20018;-69
2024/03/17 01:11:08;;;;;;;9.07;4.35;;;2.90;99.90;;;;;;7380327;19;20045;-66
2024/03/17 01:13:41;;;;;;;9.90;5.10;;;2.90;99.90;;;;;;7378146;19;20074;-71
2024/03/17 01:16:07;;;;;;;12.65;4.32;;;2.80;99.90;;;;;;7373871;19;20559;-70
2024/03/17 01:18:36;;;;;;;8.65;4.40;;;2.90;99.90;;;;;;7380248;19;20042;-71
2024/03/17 01:21:02;;;;;;;9.07;4.43;;;2.80;99.90;;;;;;7374157;19;20370;-72
2024/03/17 01:23:28;;;;;;;11.77;5.10;;;2.80;99.90;;;;;;7377328;19;20018;-67
2024/03/17 01:25:54;;;;;;;9.68;4.35;;;2.80;99.90;;;;;;7380824;19;20026;-71
2024/03/17 01:28:20;;;;;;;8.93;5.13;;;2.80;99.90;;;;;;7369417;19;20816;-72
2024/03/17 01:30:48;;;;;;;11.88;5.00;;;2.70;99.90;;;;;;7375060;19;20125;-72
2024/03/17 01:33:14;;;;;;;11.45;5.18;;;2.70;99.90;;;;;;7382324;19;20019;-69
2024/03/17 01:35:40;;;;;;;9.77;5.57;;;2.70;99.90;;;;;;7384039;19;20010;-67
2024/03/17 01:38:06;;;;;;;13.45;5.10;;;2.80;99.90;;;;;;7375866;19;20019;-72
2024/03/17 01:40:32;;;;;;;11.75;5.40;;;2.60;99.90;;;;;;7381149;19;20015;-71
2024/03/17 01:43:00;;;;;;;12.40;5.50;;;2.60;99.90;;;;;;7373247;19;20014;-72
2024/03/17 01:45:29;;;;;;;9.88;5.75;;;2.60;99.90;;;;;;7371711;19;20875;-72
2024/03/17 01:47:59;;;;;;;11.23;5.57;;;2.60;99.90;;;;;;7380777;19;20379;-67
2024/03/17 01:50:33;;;;;;;11.15;5.15;;;2.50;99.90;;;;;;7381735;19;20189;-67
2024/03/17 01:53:04;;;;;;;9.95;4.85;;;2.60;99.90;;;;;;7385115;19;20387;-67
2024/03/17 01:55:34;;;;;;;12.88;5.35;;;2.50;99.90;;;;;;7382910;19;20677;-66
2024/03/17 01:58:03;;;;;;;8.55;5.20;;;2.50;99.90;;;;;;7375448;19;20026;-72
2024/03/17 02:00:31;;;;;;;12.73;5.30;;;2.40;99.90;;;;;;7369440;19;20022;-72
2024/03/17 02:02:57;;;;;;;9.00;5.35;;;2.40;99.90;;;;;;7373043;19;20022;-72
2024/03/17 02:05:23;;;;;;;10.38;4.90;;;2.40;99.90;;;;;;7372627;19;20051;-72
2024/03/17 02:07:50;;;;;;;12.32;5.07;;;2.30;99.90;;;;;;7374216;19;20029;-67
2024/03/17 02:10:16;;;;;;;9.05;4.72;;;2.30;99.90;;;;;;7381359;19;20017;-67
2024/03/17 02:12:42;;;;;;;11.80;5.60;;;2.30;99.90;;;;;;7382905;19;20455;-72
2024/03/17 02:15:08;;;;;;;8.88;4.60;;;2.30;99.90;;;;;;7373941;19;20372;-67
2024/03/17 02:17:37;;;;;;;11.38;4.82;;;2.20;99.90;;;;;;7383310;19;20025;-68
2024/03/17 02:20:07;;;;;;;14.30;4.95;;;2.10;99.90;;;;;;7367234;19;20115;-72
2024/03/17 02:22:37;;;;;;;8.68;4.93;;;2.10;99.90;;;;;;7366013;19;20510;-71
2024/03/17 02:25:03;;;;;;;9.05;5.03;;;2.10;99.90;;;;;;7374309;19;20018;-68
2024/03/17 02:27:30;;;;;;;9.95;5.30;;;2.10;99.90;;;;;;7380852;19;20519;-67
2024/03/17 02:29:56;;;;;;;13.05;5.45;;;2.10;99.90;;;;;;7381611;19;20434;-67
2024/03/17 02:32:25;;;;;;;14.43;6.05;;;2.10;99.90;;;;;;7382869;19;20101;-67
2024/03/17 02:34:51;;;;;;;9.93;6.35;;;2.10;99.90;;;;;;7382026;19;20045;-67
2024/03/17 02:37:17;;;;;;;12.55;5.63;;;2.10;99.90;;;;;;7378700;19;20580;-67
2024/03/17 02:39:43;;;;;;;8.85;5.60;;;2.10;99.90;;;;;;7377749;19;20014;-67
2024/03/17 02:42:10;;;;;;;11.15;5.35;;;2.10;99.90;;;;;;7380890;19;20078;-67
2024/03/17 02:44:38;;;;;;;12.73;5.05;;;2.00;99.90;;;;;;7383169;19;20777;-67
2024/03/17 02:47:05;;;;;;;11.93;5.78;;;2.00;99.90;;;;;;7383884;19;20393;-68
2024/03/17 02:49:36;;;;;;;8.68;5.30;;;2.00;99.90;;;;;;7382105;19;20366;-67
2024/03/17 02:52:12;;;;;;;14.77;5.80;;;1.90;99.90;;;;;;7379659;19;20027;-67
2024/03/17 02:54:39;;;;;;;11.07;5.57;;;2.00;99.90;;;;;;7381798;19;20029;-67
2024/03/17 02:57:06;;;;;;;9.45;6.07;;;2.00;99.90;;;;;;7376975;19;20025;-68
2024/03/17 02:59:33;;;;;;;10.02;6.25;;;2.00;99.90;;;;;;7379327;19;20057;-68
2024/03/17 03:02:00;;;;;;;10.77;5.72;;;2.00;99.90;;;;;;7372635;19;20022;-72
2024/03/17 03:04:27;;;;;;;10.32;5.82;;;2.00;99.90;;;;;;7367989;19;20054;-72
2024/03/17 03:06:53;;;;;;;12.25;6.15;;;2.00;99.90;;;;;;7368534;19;20018;-71
2024/03/17 03:09:31;;;;;;;10.23;5.63;;;2.00;99.90;;;;;;7373240;19;20029;-75
2024/03/17 03:11:59;;;;;;;11.32;7.35;;;2.00;99.90;;;;;;7368132;19;20356;-72
2024/03/17 03:14:25;;;;;;;11.80;7.82;;;2.00;99.90;;;;;;7371061;19;20034;-72
2024/03/17 03:16:51;;;;;;;17.42;7.88;;;2.00;99.90;;;;;;7365198;19;20082;-72
2024/03/17 03:19:19;;;;;;;15.38;7.85;;;2.10;99.90;;;;;;7368672;19;20029;-73
2024/03/17 03:21:45;;;;;;;18.02;8.90;;;2.10;99.90;;;;;;7365250;19;20025;-72
2024/03/17 03:24:13;;;;;;;12.80;8.07;;;2.10;99.90;;;;;;7370522;19;20493;-72
2024/03/17 03:26:40;;;;;;;16.25;8.35;;;2.10;99.90;;;;;;7363555;19;20364;-72
2024/03/17 03:29:06;;;;;;;16.30;8.13;;;2.10;99.90;;;;;;7371405;19;20114;-71
2024/03/17 03:31:33;;;;;;;13.35;8.13;;;2.10;99.90;;;;;;7369079;19;20031;-71
2024/03/17 03:34:03;;;;;;;12.02;7.68;;;2.10;99.90;;;;;;7381032;19;20024;-66
2024/03/17 03:36:29;;;;;;;15.25;7.68;;;2.10;99.90;;;;;;7384884;19;20014;-66
2024/03/17 03:38:56;;;;;;;12.05;6.82;;;2.10;99.90;;;;;;7384324;19;20022;-67
2024/03/17 03:41:24;;;;;;;10.45;7.38;;;2.00;99.90;;;;;;7382086;19;20620;-67
2024/03/17 03:43:50;;;;;;;14.27;7.50;;;2.00;99.90;;;;;;7382950;19;20014;-67
2024/03/17 03:46:17;;;;;;;12.00;6.93;;;2.00;99.90;;;;;;7384097;19;20085;-67
2024/03/17 03:48:43;;;;;;;12.50;6.15;;;2.00;99.90;;;;;;7386364;19;20509;-66
2024/03/17 03:51:12;;;;;;;12.20;6.55;;;2.00;99.90;;;;;;7382417;19;20017;-68
2024/03/17 03:53:39;;;;;;;9.95;5.95;;;2.00;99.90;;;;;;7384491;19;20348;-67
2024/03/17 03:56:10;;;;;;;14.48;7.30;;;2.00;99.90;;;;;;7382886;19;20779;-72
2024/03/17 03:58:37;;;;;;;11.27;7.32;;;2.00;99.90;;;;;;7380412;19;20018;-72
2024/03/17 04:01:05;;;;;;;13.40;7.20;;;2.10;99.90;;;;;;7376732;19;20018;-71
2024/03/17 04:03:33;;;;;;;13.70;7.28;;;2.00;99.90;;;;;;7375497;19;20047;-72
2024/03/17 04:06:07;;;;;;;13.18;7.35;;;2.10;99.90;;;;;;7375791;19;20022;-71
2024/03/17 04:08:37;;;;;;;10.93;7.30;;;2.10;99.90;;;;;;7377731;19;20883;-71
2024/03/17 04:11:04;;;;;;;11.30;6.70;;;2.10;99.90;;;;;;7378730;19;20041;-71
2024/03/17 04:13:30;;;;;;;14.65;7.38;;;2.10;99.90;;;;;;7379239;19;20924;-71
2024/03/17 04:15:58;;;;;;;11.27;6.88;;;2.20;99.90;;;;;;7383042;19;20383;-67
2024/03/17 04:18:26;;;;;;;14.63;7.43;;;2.10;99.90;;;;;;7382004;19;20014;-67
2024/03/17 04:20:54;;;;;;;14.35;7.60;;;2.20;99.90;;;;;;7388568;19;20023;-67
2024/03/17 04:23:21;;;;;;;12.90;7.50;;;2.30;99.90;;;;;;7383924;19;20038;-67
2024/03/17 04:25:53;;;;;;;15.40;8.57;;;2.30;99.90;;;;;;7389707;19;20038;-66
2024/03/17 04:28:19;;;;;;;10.77;7.75;;;2.40;99.90;;;;;;7384163;19;20537;-66
2024/03/17 04:30:48;;;;;;;12.23;8.05;;;2.50;99.90;;;;;;7387807;19;20600;-67
2024/03/17 04:33:16;;;;;;;11.40;7.80;;;2.50;99.90;;;;;;7386756;19;20041;-67
2024/03/17 04:35:43;;;;;;;15.85;8.80;;;2.60;99.90;;;;;;7386810;19;20078;-67
2024/03/17 04:38:14;;;;;;;15.73;8.65;;;2.70;99.90;;;;;;7386448;19;20038;-67
2024/03/17 04:40:41;;;;;;;20.10;9.27;;;2.80;99.90;;;;;;7389731;19;20026;-67
2024/03/17 04:43:08;;;;;;;12.55;7.70;;;2.80;99.90;;;;;;7373052;19;20027;-71
2024/03/17 04:45:34;;;;;;;12.90;7.72;;;2.90;99.90;;;;;;7378637;19;20025;-71
2024/03/17 04:48:01;;;;;;;10.93;7.75;;;2.90;99.90;;;;;;7380321;19;20019;-71
2024/03/17 04:50:31;;;;;;;14.48;7.72;;;3.00;99.90;;;;;;7377848;19;20039;-71
2024/03/17 04:52:59;;;;;;;14.15;7.35;;;3.00;99.90;;;;;;7378271;19;20040;-68
2024/03/17 04:55:26;;;;;;;13.07;8.05;;;3.10;99.90;;;;;;7380494;19;20035;-71
2024/03/17 04:57:52;;;;;;;14.43;7.88;;;3.20;99.90;;;;;;7372865;19;20483;-71
2024/03/17 05:00:18;;;;;;;11.65;8.02;;;3.20;99.90;;;;;;7377387;19;20018;-71
2024/03/17 05:02:45;;;;;;;11.65;7.65;;;3.30;99.90;;;;;;7374545;19;20037;-71
2024/03/17 05:05:11;;;;;;;13.27;7.43;;;3.30;99.90;;;;;;7377351;19;20030;-71
2024/03/17 05:07:38;;;;;;;14.75;7.63;;;3.30;99.90;;;;;;7372437;19;20774;-71
2024/03/17 05:10:05;;;;;;;14.07;7.40;;;3.40;99.90;;;;;;7372069;19;20018;-71
2024/03/17 05:12:32;;;;;;;15.85;7.82;;;3.30;99.90;;;;;;7366340;19;20015;-71
2024/03/17 05:14:58;;;;;;;20.90;9.02;;;3.40;99.90;;;;;;7372042;19;20019;-71
2024/03/17 05:17:24;;;;;;;16.65;8.48;;;3.40;99.90;;;;;;7363010;19;20475;-70
2024/03/17 05:19:50;;;;;;;14.82;7.72;;;3.40;99.90;;;;;;7369217;19;20037;-71
2024/03/17 05:22:17;;;;;;;15.57;8.23;;;3.50;99.90;;;;;;7373131;19;20025;-71
2024/03/17 05:24:43;;;;;;;16.15;8.18;;;3.50;99.90;;;;;;7376101;19;20749;-71
2024/03/17 05:27:09;;;;;;;16.23;8.93;;;3.50;99.90;;;;;;7363217;19;20403;-67
2024/03/17 05:29:37;;;;;;;14.93;7.63;;;3.60;99.90;;;;;;7374178;19;20014;-67
2024/03/17 05:32:04;;;;;;;13.80;8.65;;;3.60;99.90;;;;;;7379914;19;20010;-67
2024/03/17 05:34:32;;;;;;;14.45;8.70;;;3.60;99.90;;;;;;7370186;19;20018;-69
2024/03/17 05:36:59;;;;;;;18.30;9.70;;;3.60;99.90;;;;;;7379412;19;20025;-66
2024/03/17 05:39:25;;;;;;;14.93;8.45;;;3.70;99.90;;;;;;7377840;19;20014;-66
2024/03/17 05:41:52;;;;;;;17.85;8.90;;;3.70;99.90;;;;;;7368835;19;20010;-70
2024/03/17 05:44:18;;;;;;;13.75;8.25;;;3.80;99.90;;;;;;7365814;19;20026;-71
2024/03/17 05:46:44;;;;;;;17.40;9.00;;;3.80;99.90;;;;;;7362931;19;20014;-70
2024/03/17 05:49:10;;;;;;;16.67;8.15;;;3.80;99.90;;;;;;7376392;19;20084;-67
2024/03/17 05:51:37;;;;;;;11.60;8.02;;;3.80;99.90;;;;;;7377792;19;20022;-67
2024/03/17 05:54:03;;;;;;;12.45;7.78;;;3.90;99.90;;;;;;7376724;19;20059;-67
2024/03/17 05:56:29;;;;;;;12.68;7.82;;;3.90;99.90;;;;;;7376436;19;20858;-67
2024/03/17 05:58:55;;;;;;;15.50;7.57;;;4.00;99.90;;;;;;7373720;19;20018;-72
2024/03/17 06:01:22;;;;;;;15.23;7.25;;;4.00;99.90;;;;;;7366551;19;20030;-71
2024/03/17 06:03:48;;;;;;;12.98;7.93;;;4.10;99.90;;;;;;7364147;19;20359;-67
2024/03/17 06:06:14;;;;;;;10.93;6.78;;;4.10;99.90;;;;;;7377343;19;20345;-66
2024/03/17 06:08:40;;;;;;;20.25;7.55;;;4.20;99.90;;;;;;7378646;19;20033;-71
2024/03/17 06:11:11;;;;;;;12.45;6.32;;;4.20;99.90;;;;;;7370184;19;20021;-72
2024/03/17 06:13:37;;;;;;;13.35;7.03;;;4.20;99.90;;;;;;7365696;19;20023;-71
2024/03/17 06:16:06;;;;;;;11.48;6.78;;;4.30;99.90;;;;;;7364092;19;20032;-71
2024/03/17 06:18:32;;;;;;;13.52;6.95;;;4.30;99.90;;;;;;7364569;19;20018;-72
2024/03/17 06:20:58;;;;;;;14.23;6.53;;;4.40;99.90;;;;;;7367681;19;20022;-72
2024/03/17 06:23:29;;;;;;;16.25;6.75;;;4.40;99.90;;;;;;7364532;19;21023;-71
2024/03/17 06:25:55;;;;;;;12.52;6.45;;;4.50;99.90;;;;;;7370264;19;20130;-72
2024/03/17 06:28:21;;;;;;;15.18;6.47;;;4.50;99.90;;;;;;7360893;19;20022;-72
2024/03/17 06:31:04;;;;;;;10.73;6.32;;;4.60;99.90;;;;;;7365691;19;20086;-71
2024/03/17 06:33:32;;;;;;;13.65;6.80;;;4.70;99.90;;;;;;7361334;19;20014;-71
2024/03/17 06:36:05;;;;;;;13.27;6.65;;;4.70;99.90;;;;;;7363687;19;20112;-70
2024/03/17 06:38:33;;;;;;;12.90;6.20;;;4.80;99.90;;;;;;7363280;19;20019;-70
2024/03/17 06:40:59;;;;;;;9.85;5.65;;;4.90;99.90;;;;;;7367527;19;20029;-68
2024/03/17 06:43:25;;;;;;;9.48;6.20;;;5.00;99.90;;;;;;7372479;19;20093;-68
2024/03/17 06:45:59;;;;;;;14.18;5.88;;;5.00;99.90;;;;;;7375109;19;20022;-69
2024/03/17 06:48:26;;;;;;;11.63;6.00;;;5.10;99.90;;;;;;7376996;19;20041;-68
2024/03/17 06:50:56;;;;;;;10.43;5.18;;;5.20;99.90;;;;;;7377184;19;20483;-69
2024/03/17 06:53:26;;;;;;;14.43;5.30;;;5.20;99.90;;;;;;7369633;19;20074;-72
2024/03/17 06:55:56;;;;;;;12.13;4.97;;;5.30;99.90;;;;;;7362753;19;20022;-72
2024/03/17 06:58:23;;;;;;;11.50;4.63;;;5.30;99.90;;;;;;7368450;19;20014;-68
2024/03/17 07:00:55;;;;;;;10.95;4.32;;;5.40;99.90;;;;;;7370984;19;20022;-71
2024/03/17 07:03:26;;;;;;;9.45;4.38;;;5.40;99.90;;;;;;7361402;19;20025;-68
2024/03/17 07:05:55;;;;;;;9.73;4.38;;;5.50;99.90;;;;;;7372615;19;20121;-72
2024/03/17 07:08:22;;;;;;;10.43;5.18;;;5.50;99.90;;;;;;7359051;19;20371;-72
2024/03/17 07:10:59;;;;;;;6.97;4.03;;;5.50;99.90;;;;;;7359739;19;20034;-71
2024/03/17 07:13:28;;;;;;;12.93;4.60;;;5.70;99.90;;;;;;7361208;19;20039;-72
2024/03/17 07:15:54;;;;;;;10.95;4.47;;;5.70;99.90;;;;;;7358165;19;20483;-72
2024/03/17 07:18:20;;;;;;;16.52;4.88;;;5.80;99.90;;;;;;7361757;19;20010;-72
2024/03/17 07:20:47;;;;;;;10.52;4.18;;;6.00;99.90;;;;;;7364451;19;20019;-72
2024/03/17 07:23:17;;;;;;;13.27;5.10;;;6.10;99.90;;;;;;7357838;19;20097;-72
2024/03/17 07:25:58;;;;;;;14.40;4.25;;;6.10;99.90;;;;;;7366809;19;20042;-69
2024/03/17 07:28:24;;;;;;;9.32;3.88;;;6.20;99.90;;;;;;7372119;19;20469;-68
2024/03/17 07:31:00;;;;;;;12.40;5.05;;;6.20;99.90;;;;;;7376893;19;20490;-68
2024/03/17 07:33:26;;;;;;;7.00;3.53;;;6.40;99.90;;;;;;7365232;19;20042;-72
2024/03/17 07:36:00;;;;;;;11.27;4.80;;;6.60;99.90;;;;;;7364354;19;20487;-73
2024/03/17 07:38:27;;;;;;;10.95;3.90;;;7.00;99.90;;;;;;7367257;19;20029;-69
2024/03/17 07:41:00;;;;;;;12.48;4.00;;;7.20;99.90;;;;;;7365438;19;20010;-73
2024/03/17 07:43:26;;;;;;;;;;;7.40;99.90;;;;;;7362823;19;20397;-73
2024/03/17 07:46:12;;;;;;;10.20;4.10;;;7.60;99.90;;;;;;7373716;19;19923;-68
2024/03/17 07:48:40;;;;;;;14.35;4.63;;;7.70;99.90;;;;;;7365903;19;20024;-68
2024/03/17 07:51:11;;;;;;;7.90;3.55;;;7.80;99.90;;;;;;7367471;19;20018;-73
2024/03/17 07:53:38;;;;;;;10.97;4.27;;;7.90;99.90;;;;;;7360913;19;20023;-73
2024/03/17 07:56:06;;;;;;;9.05;4.10;;;8.30;99.90;;;;;;7363792;19;20888;-73
2024/03/17 07:58:33;;;;;;;9.85;4.35;;;8.80;99.90;;;;;;7364804;19;20006;-69
2024/03/17 08:01:01;;;;;;;8.90;3.97;;;9.00;99.90;;;;;;7368265;19;20570;-72
2024/03/17 08:03:29;;;;;;;10.23;4.47;;;8.90;99.90;;;;;;7352109;19;20481;-68
2024/03/17 08:05:55;;;;;;;9.80;3.95;;;8.80;99.90;;;;;;7370242;19;20831;-73
2024/03/17 08:08:21;;;;;;;7.53;4.13;;;8.70;99.90;;;;;;7362106;19;21031;-72
2024/03/17 08:10:48;;;;;;;8.75;4.95;;;8.60;99.90;;;;;;7366169;19;20025;-69
2024/03/17 08:13:16;;;;;;;15.70;4.90;;;8.50;99.90;;;;;;7365734;19;20081;-73
2024/03/17 08:15:43;;;;;;;11.52;4.80;;;8.40;99.90;;;;;;7362811;19;20495;-73
2024/03/17 08:18:10;;;;;;;10.25;5.80;;;8.40;99.90;;;;;;7360914;19;20045;-73
2024/03/17 08:20:40;;;;;;;10.95;4.68;;;8.30;99.90;;;;;;7366818;19;20018;-73
2024/03/17 08:23:07;;;;;;;9.13;4.93;;;8.30;99.90;;;;;;7373066;19;20601;-73
2024/03/17 08:25:34;;;;;;;10.18;5.00;;;8.40;99.90;;;;;;7367023;19;20031;-73
2024/03/17 08:28:01;;;;;;;12.40;5.57;;;8.40;99.90;;;;;;7374333;19;20026;-69
2024/03/17 08:30:28;;;;;;;11.38;5.90;;;8.50;99.90;;;;;;7379755;19;20018;-69
2024/03/17 08:32:57;;;;;;;15.88;6.63;;;8.50;99.90;;;;;;7374532;19;20018;-75
2024/03/17 08:35:23;;;;;;;10.73;6.38;;;8.50;99.90;;;;;;7368870;19;20506;-74
2024/03/17 08:37:51;;;;;;;10.63;6.82;;;8.60;99.90;;;;;;7368312;19;20042;-74
2024/03/17 08:40:17;;;;;;;10.23;6.40;;;8.60;99.90;;;;;;7369739;19;20039;-74
2024/03/17 08:42:45;;;;;;;13.93;6.80;;;8.60;99.90;;;;;;7380746;19;20418;-69
2024/03/17 08:45:12;;;;;;;11.30;6.53;;;8.80;99.90;;;;;;7376670;19;20044;-70
2024/03/17 08:47:38;;;;;;;11.10;6.85;;;8.80;99.90;;;;;;7378474;19;20065;-74
2024/03/17 08:50:08;;;;;;;15.95;7.63;;;9.00;99.90;;;;;;7373234;19;20018;-71
2024/03/17 08:52:34;;;;;;;14.88;8.68;;;9.10;99.90;;;;;;7377780;19;20025;-70
2024/03/17 08:55:09;;;;;;;10.85;7.18;;;9.10;99.90;;;;;;7376873;19;20019;-69
2024/03/17 08:57:35;;;;;;;11.85;8.27;;;9.20;99.90;;;;;;7376779;19;20033;-73
2024/03/17 09:00:02;;;;;;;14.20;8.80;;;9.40;99.90;;;;;;7369861;19;20093;-77
2024/03/17 09:02:30;;;;;;;13.32;8.57;;;9.80;99.90;;;;;;7374440;19;20021;-70
2024/03/17 09:04:56;;;;;;;15.38;8.98;;;10.10;99.90;;;;;;7372147;19;20028;-76
2024/03/17 09:07:22;;;;;;;12.70;8.15;;;10.30;99.90;;;;;;7368380;19;20091;-76
2024/03/17 09:09:48;;;;;;;19.17;9.73;;;10.30;99.90;;;;;;7367752;19;20708;-62
2024/03/17 09:12:14;;;;;;;15.77;9.18;;;10.40;99.90;;;;;;7365599;19;20019;-73
2024/03/17 09:14:41;;;;;;;13.93;9.82;;;10.30;99.90;;;;;;7370329;19;20030;-69
2024/03/17 09:17:07;;;;;;;12.55;8.27;;;10.30;99.90;;;;;;7383850;19;20054;-75
2024/03/17 09:19:33;;;;;;;13.85;8.90;;;10.30;99.90;;;;;;7366109;19;20015;-74
2024/03/17 09:21:59;;;;;;;14.05;8.35;;;10.70;99.90;;;;;;7366092;19;20022;-73
2024/03/17 09:24:26;;;;;;;15.73;8.82;;;11.30;99.90;;;;;;7358100;19;20015;-74
2024/03/17 09:26:53;;;;;;;13.98;8.80;;;11.80;99.90;;;;;;7360733;19;20376;-66
2024/03/17 09:29:19;;;;;;;13.10;7.63;;;12.40;99.90;;;;;;7366269;19;20051;-70
2024/03/17 09:31:45;;;;;;;13.25;7.68;;;12.80;99.90;;;;;;7365757;19;20137;-75
2024/03/17 09:34:11;;;;;;;13.15;7.57;;;12.90;99.90;;;;;;7368378;19;20014;-70
2024/03/17 09:36:37;;;;;;;13.90;8.38;;;12.90;99.90;;;;;;7375738;19;20156;-71
2024/03/17 09:39:05;;;;;;;15.10;8.23;;;12.90;99.90;;;;;;7379191;19;20019;-70
2024/03/17 09:41:31;;;;;;;13.48;8.18;;;12.80;99.90;;;;;;7368059;19;20041;-73
2024/03/17 09:43:58;;;;;;;13.00;7.53;;;12.70;99.90;;;;;;7364796;19;20444;-70
2024/03/17 09:46:26;;;;;;;11.82;7.78;;;12.50;99.90;;;;;;7373400;19;21114;-70
2024/03/17 09:48:53;;;;;;;11.68;7.22;;;12.50;99.90;;;;;;7365245;19;20117;-73
2024/03/17 09:51:21;;;;;;;11.70;8.15;;;12.50;99.90;;;;;;7367948;19;20018;-70
2024/03/17 09:53:48;;;;;;;11.18;8.00;;;12.50;99.90;;;;;;7375912;19;20015;-70
2024/03/17 09:56:17;;;;;;;10.77;7.28;;;12.50;99.90;;;;;;7372576;19;20022;-75
2024/03/17 09:58:44;;;;;;;10.20;8.07;;;12.70;99.90;;;;;;7366582;19;20683;-70
2024/03/17 10:01:11;;;;;;;14.57;7.88;;;12.70;99.90;;;;;;7371673;19;20033;-70
2024/03/17 10:03:58;;;;;;;12.57;7.75;;;12.70;99.90;;;;;;7358666;19;20019;-74
2024/03/17 10:06:29;;;;;;;10.80;7.85;;;12.90;99.90;;;;;;7359589;19;20028;-73
2024/03/17 10:08:56;;;;;;;15.07;9.10;;;12.60;99.90;;;;;;7371577;19;20758;-73
2024/03/17 10:11:25;;;;;;;12.40;7.95;;;12.50;99.90;;;;;;7376012;19;20022;-74
2024/03/17 10:14:05;;;;;;;11.98;8.65;;;12.70;99.90;;;;;;7372564;19;20029;-74
2024/03/17 10:16:34;;;;;;;10.98;8.43;;;12.70;99.90;;;;;;7370421;19;20834;-74
2024/03/17 10:19:13;;;;;;;10.90;8.18;;;12.50;99.90;;;;;;7372502;19;20014;-70
2024/03/17 10:21:44;;;;;;;9.93;7.82;;;12.50;99.90;;;;;;7375151;19;20022;-70
2024/03/17 10:24:11;;;;;;;9.65;7.68;;;12.40;99.90;;;;;;7372730;19;20045;-70
2024/03/17 10:26:49;;;;;;;11.18;7.38;;;12.30;99.90;;;;;;7370530;19;20026;-70
2024/03/17 10:29:29;;;;;;;10.07;8.07;;;12.30;99.90;;;;;;7367650;19;20091;-74
2024/03/17 10:32:01;;;;;;;11.35;7.95;;;12.30;99.90;;;;;;7367538;19;20383;-70
2024/03/17 10:34:34;;;;;;;10.65;8.13;;;12.30;99.90;;;;;;7364069;19;20096;-74
2024/03/17 10:37:27;;;;;;;11.35;8.40;;;12.30;99.90;;;;;;7374478;19;20025;-70
2024/03/17 10:39:55;;;;;;;11.10;8.65;;;12.20;99.90;;;;;;7376077;19;20022;-70
2024/03/17 10:42:28;;;;;;;12.45;8.73;;;12.20;99.90;;;;;;7370498;19;20029;-70
2024/03/17 10:44:55;;;;;;;14.00;8.32;;;12.10;99.90;;;;;;7376811;19;20029;-69
2024/03/17 10:47:24;;;;;;;9.63;8.20;;;12.00;99.90;;;;;;7371151;19;20043;-69
2024/03/17 10:49:52;;;;;;;11.00;8.73;;;11.90;99.90;;;;;;7375816;19;20102;-69
2024/03/17 10:52:19;;;;;;;11.50;8.45;;;11.90;99.90;;;;;;7359833;19;20479;-74
2024/03/17 10:54:54;;;;;;;13.25;8.77;;;11.80;99.90;;;;;;7362650;19;20022;-73
2024/03/17 10:57:35;;;;;;;14.80;9.18;;;11.80;99.90;;;;;;7366793;19;20031;-73
2024/03/17 11:00:08;;;;;;;11.35;8.95;;;11.70;99.90;;;;;;7360627;19;21072;-74
2024/03/17 11:02:36;;;;;;;13.55;9.52;;;11.60;99.90;;;;;;7358076;19;20482;-72
2024/03/17 11:05:03;;;;;;;12.27;9.85;;;11.70;99.90;;;;;;7358975;19;20018;-73
2024/03/17 11:07:31;;;;;;;12.10;8.60;;;11.60;99.90;;;;;;7365785;19;20014;-69
2024/03/17 11:09:59;;;;;;;11.45;8.90;;;11.60;99.90;;;;;;7362519;19;20019;-72
2024/03/17 11:12:44;;;;;;;11.50;8.45;;;11.60;99.90;;;;;;7357718;19;20026;-73
2024/03/17 11:15:39;;;;;;;13.15;9.40;;;11.60;99.90;;;;;;7358667;19;20036;-73
2024/03/17 11:18:17;;;;;;;11.32;8.65;;;11.60;99.90;;;;;;7363656;19;20799;-73
2024/03/17 11:21:15;;;;;;;12.13;9.20;;;11.60;99.90;;;;;;7360984;19;21020;-72
2024/03/17 11:23:42;;;;;;;12.57;9.13;;;11.60;99.90;;;;;;7360553;19;20018;-68
2024/03/17 11:26:09;;;;;;;11.95;9.18;;;11.60;99.90;;;;;;7371622;19;20982;-72
2024/03/17 11:28:44;;;;;;;12.70;8.93;;;11.70;99.90;;;;;;7355061;19;20018;-73
2024/03/17 11:31:44;;;;;;;12.63;9.48;;;11.70;99.90;;;;;;7359138;19;20841;-73
2024/03/17 11:34:33;;;;;;;12.00;9.57;;;11.60;99.90;;;;;;7359317;19;20730;-72
2024/03/17 11:37:00;;;;;;;9.38;8.48;;;11.60;99.90;;;;;;7380559;19;20027;-69
2024/03/17 11:39:56;;;;;;;10.82;9.02;;;11.60;99.90;;;;;;7378707;19;20102;-69
2024/03/17 11:42:24;;;;;;;11.10;7.68;;;11.60;99.90;;;;;;7378158;19;20018;-70
2024/03/17 11:45:01;;;;;;;10.95;9.52;;;11.60;99.90;;;;;;7382244;19;20025;-70
2024/03/17 11:47:42;;;;;;;12.25;10.23;;;11.80;99.90;;;;;;7370602;19;20015;-69
2024/03/17 11:50:10;;;;;;;13.77;9.38;;;11.90;99.90;;;;;;7375950;19;20011;-70
2024/03/17 11:52:40;;;;;;;12.48;9.95;;;12.00;99.90;;;;;;7376713;19;20010;-70
2024/03/17 11:55:15;;;;;;;11.40;8.65;;;12.10;99.90;;;;;;7388268;19;20371;-70
2024/03/17 11:57:45;;;;;;;11.70;8.82;;;12.30;99.90;;;;;;7386784;19;20987;-70
2024/03/17 12:00:23;;;;;;;12.10;9.85;;;12.50;99.90;;;;;;7390383;19;20022;-70
2024/03/17 12:02:50;;;;;;;10.82;8.40;;;12.60;99.90;;;;;;7386433;19;20022;-73
2024/03/17 12:05:18;;;;;;;10.40;8.77;;;12.70;99.90;;;;;;7378672;19;20041;-71
2024/03/17 12:07:44;;;;;;;12.48;8.73;;;13.00;99.90;;;;;;7378237;19;20022;-72
2024/03/17 12:10:13;;;;;;;11.07;7.85;;;13.00;99.90;;;;;;7377289;19;20011;-72
2024/03/17 12:12:40;;;;;;;11.38;7.72;;;12.80;99.90;;;;;;7377661;19;20020;-73
2024/03/17 12:15:19;;;;;;;9.50;7.95;;;12.90;99.90;;;;;;7378194;19;20471;-73
2024/03/17 12:17:46;;;;;;;9.13;8.23;;;12.80;99.90;;;;;;7377075;19;20057;-73
2024/03/17 12:20:20;;;;;;;8.98;8.02;;;12.80;99.90;;;;;;7374569;19;21316;-73
2024/03/17 12:22:48;;;;;;;10.65;7.72;;;12.70;99.90;;;;;;7378500;19;20035;-73
2024/03/17 12:25:18;;;;;;;9.65;7.80;;;12.60;99.90;;;;;;7380288;19;20018;-73
2024/03/17 12:27:46;;;;;;;11.88;8.23;;;12.50;99.90;;;;;;7378147;19;20379;-73
2024/03/17 12:30:13;;;;;;;9.63;8.15;;;12.40;99.90;;;;;;7378264;19;20019;-73
2024/03/17 12:32:40;;;;;;;9.93;8.73;;;12.30;99.90;;;;;;7377264;19;20039;-73
2024/03/17 12:35:14;;;;;;;10.88;7.80;;;12.40;99.90;;;;;;7379170;19;20858;-73
2024/03/17 12:37:44;;;;;;;10.18;7.93;;;12.50;99.90;;;;;;7371860;19;20070;-73
2024/03/17 12:40:20;;;;;;;9.25;7.93;;;12.40;99.90;;;;;;7377322;19;20015;-77
2024/03/17 12:42:50;;;;;;;12.73;7.50;;;12.40;99.90;;;;;;7375418;19;20717;-72
2024/03/17 12:45:21;;;;;;;12.98;8.10;;;12.40;99.90;;;;;;7375614;19;20037;-71
2024/03/17 12:47:49;;;;;;;;;;;12.40;99.90;;;;;;7374620;19;20086;-70
2024/03/17 12:50:15;;;;;;;10.30;7.78;;;12.50;99.90;;;;;;7374377;19;20344;-73
2024/03/17 12:52:52;;;;;;;12.13;8.95;;;12.50;99.90;;;;;;7371545;19;20021;-71